Terminal Aerodrome Forecast
Issued by NWS

Home | Current Version | Previous Version | Graphics & Text | Print | Product List | Glossary On
Versions: 1 2 3 4 5 6 7 8 9 10 11 12 13
000
FTUS43 KGRB 171137
TAFCWA
TAF
KCWA 171137Z 1712/1812 20007KT P6SM OVC070 WS019/25040KT
     FM171500 23008KT 3SM -SN OVC030 WS019/26035KT
      TEMPO 1715/1719 1SM -SN OVC015
     FM171900 26008KT P6SM BKN035
     FM180100 28008KT P6SM SKC
     FM181100 11004KT P6SM BKN150=

USA.gov is the U.S. government's official web portal to all federal, state and local government web resources and services.